createdAt,value
2023-01-28T00:02:44.762Z,3.82
2023-01-28T00:07:52.024Z,3.70
2023-01-28T00:12:57.464Z,3.79
2023-01-28T00:18:02.973Z,3.68
2023-01-28T00:23:08.358Z,3.63
2023-01-28T00:28:13.751Z,3.67
2023-01-28T00:33:19.504Z,3.71
2023-01-28T00:38:24.985Z,3.72
2023-01-28T00:43:30.526Z,3.65
2023-01-28T00:48:37.452Z,3.66
2023-01-28T00:53:43.934Z,3.65
2023-01-28T00:58:49.757Z,3.58
2023-01-28T01:04:01.105Z,3.75
2023-01-28T01:09:10.183Z,3.74
2023-01-28T01:14:15.698Z,3.78
2023-01-28T01:19:21.156Z,3.74
2023-01-28T01:24:28.356Z,3.76
2023-01-28T01:29:34.169Z,3.88
2023-01-28T01:34:40.595Z,3.97
2023-01-28T01:39:45.976Z,3.80
2023-01-28T01:45:06.449Z,3.74
2023-01-28T01:50:18.920Z,3.80
2023-01-28T01:55:27.415Z,3.76
2023-01-28T02:00:32.931Z,3.87
2023-01-28T02:05:39.960Z,3.91
2023-01-28T02:10:49.068Z,3.85
2023-01-28T02:15:56.085Z,3.87
2023-01-28T02:21:23.864Z,4.02
2023-01-28T02:26:58.223Z,4.06
2023-01-28T02:32:06.725Z,4.06
2023-01-28T02:37:18.016Z,4.04
2023-01-28T02:42:27.382Z,4.06
2023-01-28T02:47:52.559Z,4.15
2023-01-28T02:53:20.079Z,4.18
2023-01-28T02:58:31.454Z,4.23
2023-01-28T03:03:43.363Z,4.22
2023-01-28T03:09:13.384Z,4.29
2023-01-28T03:14:39.274Z,4.26
2023-01-28T03:20:03.480Z,3.92
2023-01-28T03:25:30.515Z,4.04
2023-01-28T03:31:10.380Z,4.10
2023-01-28T03:36:35.846Z,4.12
2023-01-28T03:41:43.299Z,3.96
2023-01-28T03:46:49.089Z,3.80
2023-01-28T03:51:54.640Z,3.94
2023-01-28T03:57:00.243Z,4.08
2023-01-28T04:02:06.489Z,3.84
2023-01-28T04:07:15.580Z,3.78
2023-01-28T04:12:38.914Z,3.93
2023-01-28T04:17:50.777Z,3.92
2023-01-28T04:23:00.848Z,3.78
2023-01-28T04:28:07.195Z,3.73
2023-01-28T04:33:13.967Z,3.89
2023-01-28T04:38:21.038Z,3.99
2023-01-28T04:43:37.401Z,3.72
2023-01-28T04:48:50.210Z,3.67
2023-01-28T04:53:57.274Z,3.77
2023-01-28T04:59:08.515Z,3.50
2023-01-28T05:04:16.511Z,3.72
2023-01-28T05:09:22.284Z,3.89
2023-01-28T05:14:29.393Z,3.76
2023-01-28T05:19:36.533Z,3.67
2023-01-28T05:24:43.602Z,3.79
2023-01-28T05:29:49.119Z,3.71
2023-01-28T05:34:54.633Z,3.80
2023-01-28T05:40:00.105Z,3.61
2023-01-28T05:45:06.572Z,3.74
2023-01-28T05:50:15.931Z,3.58
2023-01-28T05:55:23.587Z,3.57
2023-01-28T06:00:29.307Z,3.75
2023-01-28T06:05:35.743Z,3.58
2023-01-28T06:10:41.852Z,3.44
2023-01-28T06:15:51.261Z,3.41
2023-01-28T06:20:58.468Z,3.49
2023-01-28T06:26:04.060Z,3.44
2023-01-28T06:31:09.937Z,3.29
2023-01-28T06:36:15.462Z,3.17
2023-01-28T06:41:20.848Z,3.10
2023-01-28T06:46:26.342Z,3.16
2023-01-28T06:51:31.898Z,3.22
2023-01-28T06:56:37.386Z,3.18
2023-01-28T07:01:42.953Z,3.39
2023-01-28T07:06:48.495Z,3.38
2023-01-28T07:11:54.032Z,3.41
2023-01-28T07:16:59.521Z,3.43
2023-01-28T07:22:05.445Z,3.66
2023-01-28T07:27:10.889Z,3.77
2023-01-28T07:32:16.349Z,3.58
2023-01-28T07:37:22.570Z,3.68
2023-01-28T07:42:28.092Z,3.91
2023-01-28T07:47:34.036Z,3.79
2023-01-28T07:52:41.962Z,3.79
2023-01-28T07:57:58.545Z,3.98
2023-01-28T08:03:06.732Z,4.05
2023-01-28T08:08:12.591Z,4.05
2023-01-28T08:13:18.933Z,4.09
2023-01-28T08:18:24.386Z,4.34
2023-01-28T08:23:30.427Z,4.36
2023-01-28T08:28:36.281Z,4.38
2023-01-28T08:33:42.242Z,4.50
2023-01-28T08:38:47.693Z,4.35
2023-01-28T08:43:53.098Z,4.37
2023-01-28T08:48:58.487Z,4.21
2023-01-28T08:54:04.195Z,4.32
2023-01-28T08:59:09.839Z,4.51
2023-01-28T09:04:15.320Z,4.62
2023-01-28T09:09:20.884Z,4.71
2023-01-28T09:14:26.547Z,4.57
2023-01-28T09:19:32.031Z,4.70
2023-01-28T09:24:39.007Z,4.70
2023-01-28T09:29:44.690Z,4.78
2023-01-28T09:34:50.293Z,4.78
2023-01-28T09:39:55.762Z,4.79
2023-01-28T09:45:09.840Z,4.79
2023-01-28T09:50:30.673Z,4.78
2023-01-28T09:55:39.358Z,4.87
2023-01-28T10:01:06.050Z,4.94
2023-01-28T10:06:17.229Z,4.67
2023-01-28T10:11:25.838Z,4.67
2023-01-28T10:16:42.994Z,4.68
2023-01-28T10:22:10.013Z,4.69
2023-01-28T10:27:24.682Z,4.65
2023-01-28T10:32:34.400Z,4.44
2023-01-28T10:37:41.519Z,4.44
2023-01-28T10:42:47.482Z,4.58
2023-01-28T10:48:05.157Z,4.58
2023-01-28T10:53:10.589Z,4.51
2023-01-28T10:58:24.920Z,4.51
2023-01-28T11:03:35.913Z,4.59
2023-01-28T11:08:45.677Z,4.59
2023-01-28T11:13:54.134Z,4.64
2023-01-28T11:19:03.218Z,4.64
2023-01-28T11:24:22.639Z,4.58
2023-01-28T11:29:36.973Z,4.60
2023-01-28T11:34:45.453Z,4.60
2023-01-28T11:39:52.425Z,4.59
2023-01-28T11:44:57.883Z,4.59
2023-01-28T11:50:19.276Z,4.55
2023-01-28T11:55:40.544Z,4.61
2023-01-28T12:01:21.134Z,4.60
2023-01-28T12:06:41.968Z,4.42
2023-01-28T12:12:13.089Z,4.40
2023-01-28T12:17:30.703Z,4.33
2023-01-28T12:23:00.664Z,4.44
2023-01-28T12:28:18.421Z,4.44
2023-01-28T12:33:57.440Z,4.36
2023-01-28T12:39:14.768Z,4.40
2023-01-28T12:44:26.069Z,4.36
2023-01-28T12:49:43.291Z,4.30
2023-01-28T12:55:13.702Z,4.39
2023-01-28T13:00:28.135Z,4.48
2023-01-28T13:05:36.633Z,4.65
2023-01-28T13:10:47.173Z,4.69
2023-01-28T13:15:52.918Z,4.57
2023-01-28T13:20:58.523Z,4.66
2023-01-28T13:26:25.272Z,4.68
2023-01-28T13:31:33.697Z,4.69
2023-01-28T13:36:42.566Z,4.53
2023-01-28T13:41:51.048Z,4.59
2023-01-28T13:47:02.925Z,4.66
2023-01-28T13:52:14.171Z,4.73
2023-01-28T13:57:25.608Z,4.71
2023-01-28T14:02:56.807Z,4.64
2023-01-28T14:08:26.404Z,4.65
2023-01-28T14:13:34.963Z,4.57
2023-01-28T14:18:45.334Z,4.63
2023-01-28T14:23:56.986Z,4.60
2023-01-28T14:29:11.129Z,4.48
2023-01-28T14:34:20.157Z,4.48
2023-01-28T14:39:33.939Z,4.25
2023-01-28T14:44:44.585Z,4.25
2023-01-28T14:50:01.976Z,4.02
2023-01-28T14:55:22.463Z,4.04
2023-01-28T15:00:31.237Z,3.92
2023-01-28T15:05:37.015Z,3.78
2023-01-28T15:10:42.564Z,3.70
2023-01-28T15:15:51.172Z,3.70
2023-01-28T15:20:57.990Z,3.63
2023-01-28T15:26:09.075Z,3.54
2023-01-28T15:31:26.309Z,3.41
2023-01-28T15:36:32.867Z,3.36
2023-01-28T15:41:40.534Z,3.34
2023-01-28T15:46:46.561Z,3.27
2023-01-28T15:51:52.471Z,3.22
2023-01-28T15:56:59.947Z,3.13
2023-01-28T16:02:25.411Z,3.04
2023-01-28T16:07:34.194Z,2.95
2023-01-28T16:12:39.715Z,2.90
2023-01-28T16:17:48.169Z,2.80
2023-01-28T16:22:56.443Z,2.74
2023-01-28T16:28:04.639Z,2.68
2023-01-28T16:33:22.118Z,2.55
2023-01-28T16:38:27.690Z,2.50
2023-01-28T16:48:38.715Z,2.42
2023-01-28T16:53:45.143Z,2.41
2023-01-28T16:58:50.876Z,2.47
2023-01-28T17:03:56.926Z,2.41
2023-01-28T17:09:02.517Z,2.42
2023-01-28T17:14:08.344Z,2.34
2023-01-28T17:19:13.779Z,2.38
2023-01-28T17:24:19.273Z,2.49
2023-01-28T17:29:24.828Z,2.39
2023-01-28T17:34:31.488Z,2.40
2023-01-28T17:39:37.019Z,2.33
2023-01-28T17:44:42.463Z,2.33
2023-01-28T17:49:47.917Z,2.26
2023-01-28T17:54:53.596Z,2.31
2023-01-28T17:59:59.074Z,2.36
2023-01-28T18:05:04.914Z,2.43
2023-01-28T18:10:11.441Z,2.62
2023-01-28T18:15:17.403Z,2.46
2023-01-28T18:20:23.165Z,2.37
2023-01-28T18:25:28.923Z,2.37
2023-01-28T18:30:34.337Z,2.34
2023-01-28T18:35:44.568Z,2.19
2023-01-28T18:40:51.483Z,2.20
2023-01-28T18:45:56.921Z,2.11
2023-01-28T18:51:02.428Z,2.03
2023-01-28T18:56:09.315Z,1.91
2023-01-28T19:01:14.872Z,1.77
2023-01-28T19:06:20.449Z,1.63
2023-01-28T19:11:27.974Z,1.62
2023-01-28T19:16:35.500Z,1.61
2023-01-28T19:21:41.346Z,1.52
2023-01-28T19:26:46.959Z,1.49
2023-01-28T19:31:52.612Z,1.42
2023-01-28T19:36:58.159Z,1.37
2023-01-28T19:42:03.629Z,1.35
2023-01-28T19:47:09.232Z,1.30
2023-01-28T19:52:14.693Z,1.31
2023-01-28T19:57:20.543Z,1.39
2023-01-28T20:02:26.070Z,1.36
2023-01-28T20:07:31.691Z,1.37
2023-01-28T20:12:37.221Z,1.31
2023-01-28T20:17:42.763Z,1.27
2023-01-28T20:22:49.252Z,1.23
2023-01-28T20:27:54.640Z,1.20
2023-01-28T20:33:00.025Z,1.15
2023-01-28T20:38:05.651Z,1.10
2023-01-28T20:43:11.686Z,1.16
2023-01-28T20:48:17.226Z,1.16
2023-01-28T20:53:23.948Z,1.18
2023-01-28T20:58:29.853Z,1.19
2023-01-28T21:03:35.870Z,1.17
2023-01-28T21:08:41.436Z,1.19
2023-01-28T21:13:47.259Z,1.21
2023-01-28T21:18:53.034Z,1.14
2023-01-28T21:24:01.090Z,1.18
2023-01-28T21:29:07.035Z,1.18
2023-01-28T21:34:13.458Z,1.24
2023-01-28T21:39:19.023Z,1.17
2023-01-28T21:44:24.599Z,1.13
2023-01-28T21:49:30.056Z,1.10
2023-01-28T21:54:36.124Z,1.11
2023-01-28T21:59:41.639Z,1.08
2023-01-28T22:04:49.382Z,1.12
2023-01-28T22:09:54.907Z,1.96
2023-01-28T22:15:00.376Z,1.47
2023-01-28T22:20:06.659Z,1.28
2023-01-28T22:25:12.254Z,1.13
2023-01-28T22:30:18.519Z,1.09
2023-01-28T22:35:23.977Z,1.02
2023-01-28T22:40:29.509Z,1.02
2023-01-28T22:45:35.102Z,1.01
2023-01-28T22:50:40.568Z,1.07
2023-01-28T22:55:46.122Z,1.13
2023-01-28T23:00:51.923Z,1.08
2023-01-28T23:06:02.316Z,1.09
2023-01-28T23:11:09.339Z,1.07
2023-01-28T23:16:32.716Z,1.13
2023-01-28T23:21:56.188Z,1.17
2023-01-28T23:27:03.132Z,1.11
2023-01-28T23:32:11.442Z,1.06
2023-01-28T23:37:17.828Z,1.04
2023-01-28T23:42:23.762Z,1.12
2023-01-28T23:47:29.254Z,1.18
2023-01-28T23:52:34.703Z,1.24
2023-01-28T23:57:40.828Z,1.31
